Houston, Texas
Traffic Map
Current Weather Conditions
Houston, Texas
Clear
Clear
79°
Feels Like: 82°
Wind Chill: 79° Ceiling: Unl
Heat Index: 82° Visibility: 10mi
Dew Point: 73° Wind: 5mph
Humidity: 83% Direction: 30° (NNE)
Pressure: 29.93in Gusts: 0mph
Raw Report DataKMCJ 280655Z AUTO 03004KT 10SM CLR 26/23 A2993 RMK AO1
Traffic Incident Summary
Active as of:
Severity:
Category:
InformationThere was an issue retrieving the traffic information for this location. Please try a different location or try again shortly.
Advertisements
Track Severe Weather on mobile